sensor_id;sensor_type;location;lat;lon;timestamp;P1;durP1;ratioP1;P2;durP2;ratioP2
59239;SDS011;45010;53.640;10.578;2023-07-20T00:01:11;1.20;;;0.65;;
59239;SDS011;45010;53.640;10.578;2023-07-20T00:04:13;1.67;;;0.60;;
59239;SDS011;45010;53.640;10.578;2023-07-20T00:07:14;0.57;;;0.50;;
59239;SDS011;45010;53.640;10.578;2023-07-20T00:10:14;1.23;;;0.52;;
59239;SDS011;45010;53.640;10.578;2023-07-20T00:13:15;2.78;;;0.60;;
59239;SDS011;45010;53.640;10.578;2023-07-20T00:16:16;2.40;;;0.75;;
59239;SDS011;45010;53.640;10.578;2023-07-20T00:19:16;1.00;;;0.60;;
59239;SDS011;45010;53.640;10.578;2023-07-20T00:22:16;1.98;;;0.70;;
59239;SDS011;45010;53.640;10.578;2023-07-20T00:25:17;0.80;;;0.50;;
59239;SDS011;45010;53.640;10.578;2023-07-20T00:28:18;1.58;;;0.68;;
59239;SDS011;45010;53.640;10.578;2023-07-20T00:31:18;1.00;;;0.65;;
59239;SDS011;45010;53.640;10.578;2023-07-20T00:34:19;1.95;;;0.60;;
59239;SDS011;45010;53.640;10.578;2023-07-20T00:37:19;1.80;;;0.40;;
59239;SDS011;45010;53.640;10.578;2023-07-20T00:40:19;3.03;;;0.98;;
59239;SDS011;45010;53.640;10.578;2023-07-20T00:43:20;0.70;;;0.68;;
59239;SDS011;45010;53.640;10.578;2023-07-20T00:46:21;1.17;;;0.68;;
59239;SDS011;45010;53.640;10.578;2023-07-20T00:49:23;2.08;;;0.65;;
59239;SDS011;45010;53.640;10.578;2023-07-20T00:52:23;1.13;;;0.60;;
59239;SDS011;45010;53.640;10.578;2023-07-20T00:55:25;2.20;;;0.60;;
59239;SDS011;45010;53.640;10.578;2023-07-20T00:58:26;0.93;;;0.60;;
59239;SDS011;45010;53.640;10.578;2023-07-20T01:01:27;0.50;;;0.50;;
59239;SDS011;45010;53.640;10.578;2023-07-20T01:04:27;0.77;;;0.52;;
59239;SDS011;45010;53.640;10.578;2023-07-20T01:11:10;1.20;;;0.73;;
59239;SDS011;45010;53.640;10.578;2023-07-20T01:14:15;1.92;;;0.65;;
59239;SDS011;45010;53.640;10.578;2023-07-20T01:17:16;0.90;;;0.60;;
59239;SDS011;45010;53.640;10.578;2023-07-20T01:20:19;0.80;;;0.70;;
59239;SDS011;45010;53.640;10.578;2023-07-20T01:23:41;0.60;;;0.50;;
59239;SDS011;45010;53.640;10.578;2023-07-20T01:33:40;1.70;;;0.50;;
59239;SDS011;45010;53.640;10.578;2023-07-20T01:36:41;3.42;;;1.17;;
59239;SDS011;45010;53.640;10.578;2023-07-20T01:39:44;0.95;;;0.60;;
59239;SDS011;45010;53.640;10.578;2023-07-20T01:42:45;0.60;;;0.60;;
59239;SDS011;45010;53.640;10.578;2023-07-20T01:45:46;0.57;;;0.50;;
59239;SDS011;45010;53.640;10.578;2023-07-20T01:48:47;0.65;;;0.50;;
59239;SDS011;45010;53.640;10.578;2023-07-20T01:51:47;0.65;;;0.55;;
59239;SDS011;45010;53.640;10.578;2023-07-20T01:54:47;0.57;;;0.47;;
59239;SDS011;45010;53.640;10.578;2023-07-20T01:57:48;1.02;;;0.60;;
59239;SDS011;45010;53.640;10.578;2023-07-20T02:00:48;1.83;;;0.60;;
59239;SDS011;45010;53.640;10.578;2023-07-20T02:03:48;2.30;;;0.60;;
59239;SDS011;45010;53.640;10.578;2023-07-20T02:06:49;0.90;;;0.60;;
59239;SDS011;45010;53.640;10.578;2023-07-20T02:09:49;1.85;;;0.80;;
59239;SDS011;45010;53.640;10.578;2023-07-20T02:12:49;0.60;;;0.47;;
59239;SDS011;45010;53.640;10.578;2023-07-20T02:15:50;2.33;;;0.80;;
59239;SDS011;45010;53.640;10.578;2023-07-20T02:18:51;1.20;;;0.40;;
59239;SDS011;45010;53.640;10.578;2023-07-20T02:21:52;1.38;;;0.50;;
59239;SDS011;45010;53.640;10.578;2023-07-20T02:24:53;1.45;;;0.50;;
59239;SDS011;45010;53.640;10.578;2023-07-20T02:27:53;2.22;;;0.65;;
59239;SDS011;45010;53.640;10.578;2023-07-20T02:30:53;0.50;;;0.40;;
59239;SDS011;45010;53.640;10.578;2023-07-20T02:33:53;0.50;;;0.47;;
59239;SDS011;45010;53.640;10.578;2023-07-20T02:36:54;0.45;;;0.40;;
59239;SDS011;45010;53.640;10.578;2023-07-20T02:39:56;0.50;;;0.50;;
59239;SDS011;45010;53.640;10.578;2023-07-20T02:42:57;1.17;;;0.50;;
59239;SDS011;45010;53.640;10.578;2023-07-20T02:45:57;1.55;;;0.40;;
59239;SDS011;45010;53.640;10.578;2023-07-20T02:48:58;0.50;;;0.40;;
59239;SDS011;45010;53.640;10.578;2023-07-20T02:51:58;0.77;;;0.50;;
59239;SDS011;45010;53.640;10.578;2023-07-20T02:54:58;0.88;;;0.50;;
59239;SDS011;45010;53.640;10.578;2023-07-20T02:57:59;1.13;;;0.40;;
59239;SDS011;45010;53.640;10.578;2023-07-20T03:01:00;0.82;;;0.50;;
59239;SDS011;45010;53.640;10.578;2023-07-20T03:04:00;0.65;;;0.60;;
59239;SDS011;45010;53.640;10.578;2023-07-20T03:07:00;1.48;;;0.40;;
59239;SDS011;45010;53.640;10.578;2023-07-20T03:10:01;1.50;;;0.50;;
59239;SDS011;45010;53.640;10.578;2023-07-20T03:13:01;0.75;;;0.40;;
59239;SDS011;45010;53.640;10.578;2023-07-20T03:16:01;0.85;;;0.45;;
59239;SDS011;45010;53.640;10.578;2023-07-20T03:19:02;0.40;;;0.40;;
59239;SDS011;45010;53.640;10.578;2023-07-20T03:22:03;1.58;;;0.52;;
59239;SDS011;45010;53.640;10.578;2023-07-20T03:25:04;0.60;;;0.50;;
59239;SDS011;45010;53.640;10.578;2023-07-20T03:28:04;2.08;;;0.50;;
59239;SDS011;45010;53.640;10.578;2023-07-20T03:31:05;0.47;;;0.47;;
59239;SDS011;45010;53.640;10.578;2023-07-20T03:34:06;1.13;;;0.50;;
59239;SDS011;45010;53.640;10.578;2023-07-20T03:37:08;0.50;;;0.50;;
59239;SDS011;45010;53.640;10.578;2023-07-20T03:40:09;1.05;;;0.40;;
59239;SDS011;45010;53.640;10.578;2023-07-20T03:43:09;0.85;;;0.50;;
59239;SDS011;45010;53.640;10.578;2023-07-20T03:46:10;0.73;;;0.40;;
59239;SDS011;45010;53.640;10.578;2023-07-20T03:49:10;0.50;;;0.40;;
59239;SDS011;45010;53.640;10.578;2023-07-20T03:52:10;1.65;;;0.52;;
59239;SDS011;45010;53.640;10.578;2023-07-20T03:55:11;1.05;;;0.55;;
59239;SDS011;45010;53.640;10.578;2023-07-20T03:58:11;2.05;;;0.50;;
59239;SDS011;45010;53.640;10.578;2023-07-20T04:01:12;0.68;;;0.40;;
59239;SDS011;45010;53.640;10.578;2023-07-20T04:04:15;0.70;;;0.50;;
59239;SDS011;45010;53.640;10.578;2023-07-20T04:07:16;1.10;;;0.55;;
59239;SDS011;45010;53.640;10.578;2023-07-20T04:10:16;0.50;;;0.50;;
59239;SDS011;45010;53.640;10.578;2023-07-20T04:13:17;1.27;;;0.52;;
59239;SDS011;45010;53.640;10.578;2023-07-20T04:16:17;1.20;;;0.50;;
59239;SDS011;45010;53.640;10.578;2023-07-20T04:19:19;0.93;;;0.40;;
59239;SDS011;45010;53.640;10.578;2023-07-20T04:22:20;0.50;;;0.47;;
59239;SDS011;45010;53.640;10.578;2023-07-20T04:25:21;0.60;;;0.50;;
59239;SDS011;45010;53.640;10.578;2023-07-20T04:28:21;1.38;;;0.50;;
59239;SDS011;45010;53.640;10.578;2023-07-20T04:31:21;0.50;;;0.50;;
59239;SDS011;45010;53.640;10.578;2023-07-20T04:34:22;1.15;;;0.88;;
59239;SDS011;45010;53.640;10.578;2023-07-20T04:37:22;0.50;;;0.50;;
59239;SDS011;45010;53.640;10.578;2023-07-20T04:40:22;1.05;;;0.40;;
59239;SDS011;45010;53.640;10.578;2023-07-20T04:43:23;1.17;;;0.50;;
59239;SDS011;45010;53.640;10.578;2023-07-20T04:46:23;0.93;;;0.50;;
59239;SDS011;45010;53.640;10.578;2023-07-20T04:49:24;0.50;;;0.43;;
59239;SDS011;45010;53.640;10.578;2023-07-20T04:52:24;1.40;;;0.80;;
59239;SDS011;45010;53.640;10.578;2023-07-20T04:55:24;0.80;;;0.50;;
59239;SDS011;45010;53.640;10.578;2023-07-20T04:58:25;0.40;;;0.30;;
59239;SDS011;45010;53.640;10.578;2023-07-20T05:01:25;0.77;;;0.50;;
59239;SDS011;45010;53.640;10.578;2023-07-20T05:04:26;0.30;;;0.30;;
59239;SDS011;45010;53.640;10.578;2023-07-20T05:07:27;1.45;;;0.40;;
59239;SDS011;45010;53.640;10.578;2023-07-20T05:10:27;1.02;;;0.50;;
59239;SDS011;45010;53.640;10.578;2023-07-20T05:13:27;0.47;;;0.40;;
59239;SDS011;45010;53.640;10.578;2023-07-20T05:16:28;0.40;;;0.40;;
59239;SDS011;45010;53.640;10.578;2023-07-20T05:19:28;0.40;;;0.40;;
59239;SDS011;45010;53.640;10.578;2023-07-20T05:22:28;0.55;;;0.43;;
59239;SDS011;45010;53.640;10.578;2023-07-20T05:25:29;1.00;;;0.40;;
59239;SDS011;45010;53.640;10.578;2023-07-20T05:28:29;1.33;;;0.50;;
59239;SDS011;45010;53.640;10.578;2023-07-20T05:31:29;0.85;;;0.52;;
59239;SDS011;45010;53.640;10.578;2023-07-20T05:34:31;1.17;;;0.30;;
59239;SDS011;45010;53.640;10.578;2023-07-20T05:37:31;1.55;;;0.65;;
59239;SDS011;45010;53.640;10.578;2023-07-20T05:40:32;3.55;;;0.60;;
59239;SDS011;45010;53.640;10.578;2023-07-20T05:43:32;4.40;;;0.90;;
59239;SDS011;45010;53.640;10.578;2023-07-20T05:46:32;3.15;;;0.73;;
59239;SDS011;45010;53.640;10.578;2023-07-20T05:49:34;3.53;;;0.50;;
59239;SDS011;45010;53.640;10.578;2023-07-20T05:52:34;1.77;;;0.50;;
59239;SDS011;45010;53.640;10.578;2023-07-20T05:55:35;1.17;;;0.60;;
59239;SDS011;45010;53.640;10.578;2023-07-20T05:58:35;1.58;;;0.60;;
59239;SDS011;45010;53.640;10.578;2023-07-20T06:01:36;1.58;;;0.60;;
59239;SDS011;45010;53.640;10.578;2023-07-20T06:04:37;0.65;;;0.40;;
59239;SDS011;45010;53.640;10.578;2023-07-20T06:07:38;0.93;;;0.40;;
59239;SDS011;45010;53.640;10.578;2023-07-20T06:10:38;0.80;;;0.50;;
59239;SDS011;45010;53.640;10.578;2023-07-20T06:13:39;1.08;;;0.40;;
59239;SDS011;45010;53.640;10.578;2023-07-20T06:16:39;5.53;;;0.90;;
59239;SDS011;45010;53.640;10.578;2023-07-20T06:19:39;2.15;;;0.88;;
59239;SDS011;45010;53.640;10.578;2023-07-20T06:22:40;2.35;;;0.52;;
59239;SDS011;45010;53.640;10.578;2023-07-20T06:25:40;2.30;;;0.50;;
59239;SDS011;45010;53.640;10.578;2023-07-20T06:28:40;0.63;;;0.50;;
59239;SDS011;45010;53.640;10.578;2023-07-20T06:31:41;4.32;;;0.63;;
59239;SDS011;45010;53.640;10.578;2023-07-20T06:34:41;2.50;;;0.50;;
59239;SDS011;45010;53.640;10.578;2023-07-20T06:37:41;1.27;;;0.40;;
59239;SDS011;45010;53.640;10.578;2023-07-20T06:40:42;1.08;;;0.57;;
59239;SDS011;45010;53.640;10.578;2023-07-20T06:43:42;0.75;;;0.30;;
59239;SDS011;45010;53.640;10.578;2023-07-20T06:46:42;2.15;;;0.90;;
59239;SDS011;45010;53.640;10.578;2023-07-20T06:49:43;1.73;;;0.60;;
59239;SDS011;45010;53.640;10.578;2023-07-20T06:52:43;3.50;;;0.40;;
59239;SDS011;45010;53.640;10.578;2023-07-20T06:55:44;0.80;;;0.40;;
59239;SDS011;45010;53.640;10.578;2023-07-20T06:58:44;2.25;;;0.52;;
59239;SDS011;45010;53.640;10.578;2023-07-20T07:01:44;1.42;;;0.50;;
59239;SDS011;45010;53.640;10.578;2023-07-20T07:04:44;0.80;;;0.40;;
59239;SDS011;45010;53.640;10.578;2023-07-20T07:07:47;2.30;;;1.02;;
59239;SDS011;45010;53.640;10.578;2023-07-20T07:10:47;2.30;;;0.50;;
59239;SDS011;45010;53.640;10.578;2023-07-20T07:13:47;2.38;;;0.50;;
59239;SDS011;45010;53.640;10.578;2023-07-20T07:16:50;0.82;;;0.40;;
59239;SDS011;45010;53.640;10.578;2023-07-20T07:19:51;0.95;;;0.50;;
59239;SDS011;45010;53.640;10.578;2023-07-20T07:22:54;1.92;;;0.68;;
59239;SDS011;45010;53.640;10.578;2023-07-20T07:25:55;3.63;;;0.52;;
59239;SDS011;45010;53.640;10.578;2023-07-20T07:28:56;1.10;;;0.50;;
59239;SDS011;45010;53.640;10.578;2023-07-20T07:31:56;1.50;;;0.60;;
59239;SDS011;45010;53.640;10.578;2023-07-20T07:34:57;2.75;;;0.60;;
59239;SDS011;45010;53.640;10.578;2023-07-20T07:38:00;2.17;;;0.98;;
59239;SDS011;45010;53.640;10.578;2023-07-20T07:41:00;5.70;;;0.70;;
59239;SDS011;45010;53.640;10.578;2023-07-20T07:44:01;5.53;;;0.80;;
59239;SDS011;45010;53.640;10.578;2023-07-20T07:47:01;3.25;;;0.75;;
59239;SDS011;45010;53.640;10.578;2023-07-20T07:50:02;2.80;;;0.80;;
59239;SDS011;45010;53.640;10.578;2023-07-20T07:53:02;3.35;;;0.57;;
59239;SDS011;45010;53.640;10.578;2023-07-20T07:56:06;1.88;;;0.90;;
59239;SDS011;45010;53.640;10.578;2023-07-20T07:59:07;2.03;;;0.60;;
59239;SDS011;45010;53.640;10.578;2023-07-20T08:02:07;5.20;;;0.88;;
59239;SDS011;45010;53.640;10.578;2023-07-20T08:05:08;5.03;;;0.60;;
59239;SDS011;45010;53.640;10.578;2023-07-20T08:08:08;5.07;;;1.00;;
59239;SDS011;45010;53.640;10.578;2023-07-20T08:11:09;1.77;;;0.60;;
59239;SDS011;45010;53.640;10.578;2023-07-20T08:14:09;1.08;;;0.52;;
59239;SDS011;45010;53.640;10.578;2023-07-20T08:17:09;2.50;;;0.68;;
59239;SDS011;45010;53.640;10.578;2023-07-20T08:20:10;3.53;;;0.95;;
59239;SDS011;45010;53.640;10.578;2023-07-20T08:23:12;1.58;;;0.88;;
59239;SDS011;45010;53.640;10.578;2023-07-20T08:26:13;2.67;;;0.90;;
59239;SDS011;45010;53.640;10.578;2023-07-20T08:29:13;3.83;;;0.80;;
59239;SDS011;45010;53.640;10.578;2023-07-20T08:32:14;2.85;;;0.80;;
59239;SDS011;45010;53.640;10.578;2023-07-20T08:35:14;1.40;;;0.77;;
59239;SDS011;45010;53.640;10.578;2023-07-20T08:38:15;4.45;;;0.95;;
59239;SDS011;45010;53.640;10.578;2023-07-20T08:41:16;2.85;;;1.95;;
59239;SDS011;45010;53.640;10.578;2023-07-20T08:44:16;3.88;;;1.83;;
59239;SDS011;45010;53.640;10.578;2023-07-20T08:47:17;2.47;;;1.73;;
59239;SDS011;45010;53.640;10.578;2023-07-20T08:50:19;4.05;;;1.58;;
59239;SDS011;45010;53.640;10.578;2023-07-20T08:53:20;3.35;;;1.50;;
59239;SDS011;45010;53.640;10.578;2023-07-20T08:56:21;3.55;;;1.42;;
59239;SDS011;45010;53.640;10.578;2023-07-20T08:59:24;5.55;;;1.75;;
59239;SDS011;45010;53.640;10.578;2023-07-20T09:02:25;5.10;;;1.42;;
59239;SDS011;45010;53.640;10.578;2023-07-20T09:05:27;2.75;;;1.88;;
59239;SDS011;45010;53.640;10.578;2023-07-20T09:08:27;4.68;;;2.45;;
59239;SDS011;45010;53.640;10.578;2023-07-20T09:11:27;4.38;;;2.42;;
59239;SDS011;45010;53.640;10.578;2023-07-20T09:14:28;6.45;;;2.28;;
59239;SDS011;45010;53.640;10.578;2023-07-20T09:17:31;4.95;;;2.25;;
59239;SDS011;45010;53.640;10.578;2023-07-20T09:20:32;6.97;;;2.70;;
59239;SDS011;45010;53.640;10.578;2023-07-20T09:23:34;4.60;;;2.20;;
59239;SDS011;45010;53.640;10.578;2023-07-20T09:26:40;4.72;;;1.88;;
59239;SDS011;45010;53.640;10.578;2023-07-20T09:29:47;4.43;;;1.77;;
59239;SDS011;45010;53.640;10.578;2023-07-20T09:32:49;5.68;;;1.95;;
59239;SDS011;45010;53.640;10.578;2023-07-20T09:35:50;6.35;;;2.38;;
59239;SDS011;45010;53.640;10.578;2023-07-20T09:38:51;5.13;;;2.00;;
59239;SDS011;45010;53.640;10.578;2023-07-20T09:41:51;4.80;;;2.00;;
59239;SDS011;45010;53.640;10.578;2023-07-20T09:44:52;7.10;;;2.55;;
59239;SDS011;45010;53.640;10.578;2023-07-20T09:47:52;8.45;;;3.10;;
59239;SDS011;45010;53.640;10.578;2023-07-20T09:51:03;6.47;;;2.63;;
59239;SDS011;45010;53.640;10.578;2023-07-20T09:54:06;7.68;;;2.50;;
59239;SDS011;45010;53.640;10.578;2023-07-20T09:57:07;3.67;;;1.80;;
59239;SDS011;45010;53.640;10.578;2023-07-20T10:00:12;6.90;;;1.98;;
59239;SDS011;45010;53.640;10.578;2023-07-20T10:03:14;6.65;;;1.50;;
59239;SDS011;45010;53.640;10.578;2023-07-20T10:06:19;4.60;;;1.15;;
59239;SDS011;45010;53.640;10.578;2023-07-20T10:09:23;10.23;;;2.45;;
59239;SDS011;45010;53.640;10.578;2023-07-20T10:12:25;6.40;;;1.70;;
59239;SDS011;45010;53.640;10.578;2023-07-20T10:18:31;4.82;;;1.33;;
59239;SDS011;45010;53.640;10.578;2023-07-20T10:21:40;8.05;;;1.60;;
59239;SDS011;45010;53.640;10.578;2023-07-20T10:24:44;7.38;;;1.60;;
59239;SDS011;45010;53.640;10.578;2023-07-20T10:27:45;6.18;;;1.25;;
59239;SDS011;45010;53.640;10.578;2023-07-20T10:30:47;3.40;;;1.27;;
59239;SDS011;45010;53.640;10.578;2023-07-20T10:33:47;5.00;;;1.30;;
59239;SDS011;45010;53.640;10.578;2023-07-20T10:36:50;7.50;;;1.67;;
59239;SDS011;45010;53.640;10.578;2023-07-20T10:39:52;9.70;;;2.08;;
59239;SDS011;45010;53.640;10.578;2023-07-20T10:46:00;9.27;;;2.22;;
59239;SDS011;45010;53.640;10.578;2023-07-20T10:49:01;5.78;;;1.50;;
59239;SDS011;45010;53.640;10.578;2023-07-20T10:52:03;5.65;;;1.38;;
59239;SDS011;45010;53.640;10.578;2023-07-20T10:55:14;4.35;;;1.38;;
59239;SDS011;45010;53.640;10.578;2023-07-20T10:58:16;2.47;;;1.10;;
59239;SDS011;45010;53.640;10.578;2023-07-20T11:01:17;2.33;;;0.90;;
59239;SDS011;45010;53.640;10.578;2023-07-20T11:04:17;2.75;;;1.23;;
59239;SDS011;45010;53.640;10.578;2023-07-20T11:07:36;4.72;;;0.95;;
59239;SDS011;45010;53.640;10.578;2023-07-20T11:10:38;3.28;;;0.80;;
59239;SDS011;45010;53.640;10.578;2023-07-20T11:13:40;1.73;;;0.80;;
59239;SDS011;45010;53.640;10.578;2023-07-20T11:16:53;1.25;;;0.82;;
59239;SDS011;45010;53.640;10.578;2023-07-20T11:19:55;3.45;;;0.70;;
59239;SDS011;45010;53.640;10.578;2023-07-20T11:22:56;2.78;;;0.88;;
59239;SDS011;45010;53.640;10.578;2023-07-20T11:25:57;1.25;;;1.00;;
59239;SDS011;45010;53.640;10.578;2023-07-20T11:28:59;2.75;;;0.73;;
59239;SDS011;45010;53.640;10.578;2023-07-20T11:31:59;2.97;;;1.15;;
59239;SDS011;45010;53.640;10.578;2023-07-20T11:35:00;3.13;;;0.60;;
59239;SDS011;45010;53.640;10.578;2023-07-20T11:38:00;1.55;;;0.70;;
59239;SDS011;45010;53.640;10.578;2023-07-20T11:41:04;1.95;;;0.88;;
59239;SDS011;45010;53.640;10.578;2023-07-20T11:44:04;1.90;;;0.60;;
59239;SDS011;45010;53.640;10.578;2023-07-20T11:47:12;3.80;;;0.63;;
59239;SDS011;45010;53.640;10.578;2023-07-20T11:50:13;1.70;;;0.70;;
59239;SDS011;45010;53.640;10.578;2023-07-20T11:53:14;1.35;;;0.45;;
59239;SDS011;45010;53.640;10.578;2023-07-20T11:56:15;2.30;;;0.85;;
59239;SDS011;45010;53.640;10.578;2023-07-20T11:59:18;1.13;;;0.40;;
59239;SDS011;45010;53.640;10.578;2023-07-20T12:02:19;1.88;;;0.63;;
59239;SDS011;45010;53.640;10.578;2023-07-20T12:05:19;2.08;;;0.60;;
59239;SDS011;45010;53.640;10.578;2023-07-20T12:08:22;1.65;;;0.40;;
59239;SDS011;45010;53.640;10.578;2023-07-20T12:11:33;1.40;;;0.40;;
59239;SDS011;45010;53.640;10.578;2023-07-20T12:14:34;1.63;;;0.75;;
59239;SDS011;45010;53.640;10.578;2023-07-20T12:17:34;4.82;;;0.65;;
59239;SDS011;45010;53.640;10.578;2023-07-20T12:20:35;1.77;;;0.50;;
59239;SDS011;45010;53.640;10.578;2023-07-20T12:23:38;1.27;;;0.32;;
59239;SDS011;45010;53.640;10.578;2023-07-20T12:26:40;0.32;;;0.32;;
59239;SDS011;45010;53.640;10.578;2023-07-20T12:29:40;0.98;;;0.25;;
59239;SDS011;45010;53.640;10.578;2023-07-20T12:32:40;0.73;;;0.30;;
59239;SDS011;45010;53.640;10.578;2023-07-20T12:35:40;1.08;;;0.40;;
59239;SDS011;45010;53.640;10.578;2023-07-20T12:38:41;1.08;;;0.32;;
59239;SDS011;45010;53.640;10.578;2023-07-20T12:41:41;0.30;;;0.20;;
59239;SDS011;45010;53.640;10.578;2023-07-20T12:44:42;1.65;;;0.35;;
59239;SDS011;45010;53.640;10.578;2023-07-20T12:47:42;1.20;;;0.38;;
59239;SDS011;45010;53.640;10.578;2023-07-20T12:50:43;2.35;;;0.70;;
59239;SDS011;45010;53.640;10.578;2023-07-20T12:53:44;1.35;;;0.40;;
59239;SDS011;45010;53.640;10.578;2023-07-20T12:56:44;1.05;;;0.70;;
59239;SDS011;45010;53.640;10.578;2023-07-20T12:59:44;1.95;;;0.50;;
59239;SDS011;45010;53.640;10.578;2023-07-20T13:02:45;1.95;;;0.50;;
59239;SDS011;45010;53.640;10.578;2023-07-20T13:05:45;1.50;;;0.60;;
59239;SDS011;45010;53.640;10.578;2023-07-20T13:08:46;1.70;;;0.40;;
59239;SDS011;45010;53.640;10.578;2023-07-20T13:11:47;2.83;;;0.52;;
59239;SDS011;45010;53.640;10.578;2023-07-20T13:14:47;2.13;;;0.50;;
59239;SDS011;45010;53.640;10.578;2023-07-20T13:17:47;2.03;;;0.52;;
59239;SDS011;45010;53.640;10.578;2023-07-20T13:20:47;2.63;;;1.20;;
59239;SDS011;45010;53.640;10.578;2023-07-20T13:23:48;3.83;;;0.80;;
59239;SDS011;45010;53.640;10.578;2023-07-20T13:26:48;3.95;;;1.15;;
59239;SDS011;45010;53.640;10.578;2023-07-20T13:29:49;3.85;;;0.82;;
59239;SDS011;45010;53.640;10.578;2023-07-20T13:32:49;2.38;;;0.80;;
59239;SDS011;45010;53.640;10.578;2023-07-20T13:35:49;1.13;;;0.63;;
59239;SDS011;45010;53.640;10.578;2023-07-20T13:38:50;2.03;;;0.52;;
59239;SDS011;45010;53.640;10.578;2023-07-20T13:41:50;1.23;;;0.60;;
59239;SDS011;45010;53.640;10.578;2023-07-20T13:44:51;2.88;;;0.52;;
59239;SDS011;45010;53.640;10.578;2023-07-20T13:47:51;3.78;;;0.75;;
59239;SDS011;45010;53.640;10.578;2023-07-20T13:50:52;1.63;;;0.50;;
59239;SDS011;45010;53.640;10.578;2023-07-20T13:53:53;1.60;;;0.68;;
59239;SDS011;45010;53.640;10.578;2023-07-20T13:56:53;3.13;;;0.50;;
59239;SDS011;45010;53.640;10.578;2023-07-20T13:59:54;2.25;;;0.60;;
59239;SDS011;45010;53.640;10.578;2023-07-20T14:02:54;4.35;;;0.77;;
59239;SDS011;45010;53.640;10.578;2023-07-20T14:05:54;2.83;;;0.55;;
59239;SDS011;45010;53.640;10.578;2023-07-20T14:08:55;2.15;;;0.70;;
59239;SDS011;45010;53.640;10.578;2023-07-20T14:11:55;2.40;;;0.57;;
59239;SDS011;45010;53.640;10.578;2023-07-20T14:14:55;1.42;;;0.40;;
59239;SDS011;45010;53.640;10.578;2023-07-20T14:17:56;3.42;;;0.50;;
59239;SDS011;45010;53.640;10.578;2023-07-20T14:20:56;1.05;;;0.60;;
59239;SDS011;45010;53.640;10.578;2023-07-20T14:23:57;2.83;;;0.70;;
59239;SDS011;45010;53.640;10.578;2023-07-20T14:26:58;1.58;;;0.63;;
59239;SDS011;45010;53.640;10.578;2023-07-20T14:30:01;1.92;;;0.60;;
59239;SDS011;45010;53.640;10.578;2023-07-20T14:33:02;4.78;;;1.17;;
59239;SDS011;45010;53.640;10.578;2023-07-20T14:36:02;3.85;;;0.73;;
59239;SDS011;45010;53.640;10.578;2023-07-20T14:39:03;2.72;;;0.63;;
59239;SDS011;45010;53.640;10.578;2023-07-20T14:42:05;5.03;;;1.10;;
59239;SDS011;45010;53.640;10.578;2023-07-20T14:45:07;3.83;;;0.80;;
59239;SDS011;45010;53.640;10.578;2023-07-20T14:48:08;2.53;;;0.50;;
59239;SDS011;45010;53.640;10.578;2023-07-20T14:51:08;3.33;;;0.75;;
59239;SDS011;45010;53.640;10.578;2023-07-20T14:54:09;3.20;;;0.70;;
59239;SDS011;45010;53.640;10.578;2023-07-20T14:57:09;2.47;;;0.70;;
59239;SDS011;45010;53.640;10.578;2023-07-20T15:00:14;3.88;;;0.80;;
59239;SDS011;45010;53.640;10.578;2023-07-20T15:03:14;3.65;;;0.88;;
59239;SDS011;45010;53.640;10.578;2023-07-20T15:06:15;1.23;;;0.60;;
59239;SDS011;45010;53.640;10.578;2023-07-20T15:09:15;3.78;;;0.80;;
59239;SDS011;45010;53.640;10.578;2023-07-20T15:12:16;2.75;;;0.60;;
59239;SDS011;45010;53.640;10.578;2023-07-20T15:15:16;1.75;;;0.60;;
59239;SDS011;45010;53.640;10.578;2023-07-20T15:18:16;3.45;;;0.70;;
59239;SDS011;45010;53.640;10.578;2023-07-20T15:21:17;1.80;;;0.50;;
59239;SDS011;45010;53.640;10.578;2023-07-20T15:24:17;2.13;;;0.60;;
59239;SDS011;45010;53.640;10.578;2023-07-20T15:27:17;1.83;;;0.63;;
59239;SDS011;45010;53.640;10.578;2023-07-20T15:30:18;1.67;;;0.50;;
59239;SDS011;45010;53.640;10.578;2023-07-20T15:33:19;1.60;;;0.60;;
59239;SDS011;45010;53.640;10.578;2023-07-20T15:36:19;2.35;;;0.50;;
59239;SDS011;45010;53.640;10.578;2023-07-20T15:39:19;2.47;;;0.50;;
59239;SDS011;45010;53.640;10.578;2023-07-20T15:42:20;0.68;;;0.50;;
59239;SDS011;45010;53.640;10.578;2023-07-20T15:45:20;0.70;;;0.40;;
59239;SDS011;45010;53.640;10.578;2023-07-20T15:48:22;1.23;;;0.47;;
59239;SDS011;45010;53.640;10.578;2023-07-20T15:51:22;2.50;;;0.55;;
59239;SDS011;45010;53.640;10.578;2023-07-20T15:54:22;1.23;;;0.55;;
59239;SDS011;45010;53.640;10.578;2023-07-20T15:57:23;3.03;;;0.70;;
59239;SDS011;45010;53.640;10.578;2023-07-20T16:00:23;1.35;;;0.50;;
59239;SDS011;45010;53.640;10.578;2023-07-20T16:03:23;3.55;;;0.60;;
59239;SDS011;45010;53.640;10.578;2023-07-20T16:06:24;0.98;;;0.70;;
59239;SDS011;45010;53.640;10.578;2023-07-20T16:09:26;3.30;;;0.93;;
59239;SDS011;45010;53.640;10.578;2023-07-20T16:12:27;1.60;;;0.70;;
59239;SDS011;45010;53.640;10.578;2023-07-20T16:15:28;3.78;;;1.27;;
59239;SDS011;45010;53.640;10.578;2023-07-20T16:18:28;2.33;;;1.50;;
59239;SDS011;45010;53.640;10.578;2023-07-20T16:21:29;2.20;;;1.27;;
59239;SDS011;45010;53.640;10.578;2023-07-20T16:24:32;5.50;;;1.42;;
59239;SDS011;45010;53.640;10.578;2023-07-20T16:27:32;3.78;;;1.30;;
59239;SDS011;45010;53.640;10.578;2023-07-20T16:30:32;4.00;;;1.13;;
59239;SDS011;45010;53.640;10.578;2023-07-20T16:33:33;3.45;;;1.05;;
59239;SDS011;45010;53.640;10.578;2023-07-20T16:36:33;2.72;;;0.70;;
59239;SDS011;45010;53.640;10.578;2023-07-20T16:39:35;2.88;;;0.82;;
59239;SDS011;45010;53.640;10.578;2023-07-20T16:42:40;2.58;;;0.88;;
59239;SDS011;45010;53.640;10.578;2023-07-20T16:45:40;1.67;;;0.77;;
59239;SDS011;45010;53.640;10.578;2023-07-20T16:48:43;1.77;;;0.65;;
59239;SDS011;45010;53.640;10.578;2023-07-20T16:51:43;2.25;;;1.23;;
59239;SDS011;45010;53.640;10.578;2023-07-20T16:54:43;5.20;;;1.00;;
59239;SDS011;45010;53.640;10.578;2023-07-20T16:57:44;2.80;;;1.50;;
59239;SDS011;45010;53.640;10.578;2023-07-20T17:00:47;2.88;;;1.27;;
59239;SDS011;45010;53.640;10.578;2023-07-20T17:03:47;4.30;;;1.00;;
59239;SDS011;45010;53.640;10.578;2023-07-20T17:06:49;2.92;;;1.23;;
59239;SDS011;45010;53.640;10.578;2023-07-20T17:09:49;3.53;;;1.05;;
59239;SDS011;45010;53.640;10.578;2023-07-20T17:12:50;3.50;;;1.13;;
59239;SDS011;45010;53.640;10.578;2023-07-20T17:15:50;3.95;;;1.00;;
59239;SDS011;45010;53.640;10.578;2023-07-20T17:18:50;1.83;;;1.10;;
59239;SDS011;45010;53.640;10.578;2023-07-20T17:21:51;3.05;;;0.85;;
59239;SDS011;45010;53.640;10.578;2023-07-20T17:24:51;4.05;;;0.73;;
59239;SDS011;45010;53.640;10.578;2023-07-20T17:27:51;6.60;;;1.13;;
59239;SDS011;45010;53.640;10.578;2023-07-20T17:30:58;2.42;;;0.82;;
59239;SDS011;45010;53.640;10.578;2023-07-20T17:34:00;3.80;;;0.82;;
59239;SDS011;45010;53.640;10.578;2023-07-20T17:37:01;2.08;;;0.95;;
59239;SDS011;45010;53.640;10.578;2023-07-20T17:40:08;4.60;;;1.20;;
59239;SDS011;45010;53.640;10.578;2023-07-20T17:43:09;4.60;;;1.30;;
59239;SDS011;45010;53.640;10.578;2023-07-20T17:46:10;4.13;;;1.52;;
59239;SDS011;45010;53.640;10.578;2023-07-20T17:49:10;2.85;;;1.38;;
59239;SDS011;45010;53.640;10.578;2023-07-20T17:52:10;3.10;;;1.10;;
59239;SDS011;45010;53.640;10.578;2023-07-20T17:55:11;3.33;;;1.20;;
59239;SDS011;45010;53.640;10.578;2023-07-20T17:58:11;2.72;;;1.10;;
59239;SDS011;45010;53.640;10.578;2023-07-20T18:01:11;2.78;;;1.20;;
59239;SDS011;45010;53.640;10.578;2023-07-20T18:04:12;3.03;;;1.15;;
59239;SDS011;45010;53.640;10.578;2023-07-20T18:07:12;2.97;;;1.23;;
59239;SDS011;45010;53.640;10.578;2023-07-20T18:10:13;8.13;;;1.13;;